sensor_id;sensor_type;location;lat;lon;timestamp;P1;durP1;ratioP1;P2;durP2;ratioP2
60030;SDS011;45901;47.600;9.890;2024-03-08T00:00:35;31.97;;;19.20;;
60030;SDS011;45901;47.600;9.890;2024-03-08T00:03:03;35.47;;;19.93;;
60030;SDS011;45901;47.600;9.890;2024-03-08T00:05:30;35.47;;;19.20;;
60030;SDS011;45901;47.600;9.890;2024-03-08T00:07:57;31.50;;;17.30;;
60030;SDS011;45901;47.600;9.890;2024-03-08T00:10:25;32.50;;;17.53;;
60030;SDS011;45901;47.600;9.890;2024-03-08T00:12:53;33.03;;;17.97;;
60030;SDS011;45901;47.600;9.890;2024-03-08T00:15:22;32.13;;;17.50;;
60030;SDS011;45901;47.600;9.890;2024-03-08T00:17:49;30.80;;;16.90;;
60030;SDS011;45901;47.600;9.890;2024-03-08T00:20:16;34.50;;;17.27;;
60030;SDS011;45901;47.600;9.890;2024-03-08T00:22:44;30.33;;;16.20;;
60030;SDS011;45901;47.600;9.890;2024-03-08T00:25:11;26.40;;;15.03;;
60030;SDS011;45901;47.600;9.890;2024-03-08T00:27:38;31.40;;;16.63;;
60030;SDS011;45901;47.600;9.890;2024-03-08T00:30:06;29.57;;;15.90;;
60030;SDS011;45901;47.600;9.890;2024-03-08T00:32:36;29.30;;;16.67;;
60030;SDS011;45901;47.600;9.890;2024-03-08T00:35:03;32.97;;;17.70;;
60030;SDS011;45901;47.600;9.890;2024-03-08T00:37:32;28.97;;;16.10;;
60030;SDS011;45901;47.600;9.890;2024-03-08T00:40:00;30.67;;;16.23;;
60030;SDS011;45901;47.600;9.890;2024-03-08T00:42:27;35.57;;;17.20;;
60030;SDS011;45901;47.600;9.890;2024-03-08T00:44:55;29.67;;;16.80;;
60030;SDS011;45901;47.600;9.890;2024-03-08T00:47:23;31.03;;;16.60;;
60030;SDS011;45901;47.600;9.890;2024-03-08T00:49:51;29.90;;;16.37;;
60030;SDS011;45901;47.600;9.890;2024-03-08T00:52:21;30.00;;;16.67;;
60030;SDS011;45901;47.600;9.890;2024-03-08T00:54:49;33.50;;;17.07;;
60030;SDS011;45901;47.600;9.890;2024-03-08T00:57:16;28.37;;;16.17;;
60030;SDS011;45901;47.600;9.890;2024-03-08T00:59:43;31.23;;;16.50;;
60030;SDS011;45901;47.600;9.890;2024-03-08T01:02:10;34.00;;;17.83;;
60030;SDS011;45901;47.600;9.890;2024-03-08T01:04:37;32.73;;;18.20;;
60030;SDS011;45901;47.600;9.890;2024-03-08T01:07:05;32.80;;;17.50;;
60030;SDS011;45901;47.600;9.890;2024-03-08T01:09:32;37.43;;;18.30;;
60030;SDS011;45901;47.600;9.890;2024-03-08T01:11:59;40.37;;;17.90;;
60030;SDS011;45901;47.600;9.890;2024-03-08T01:14:27;39.60;;;18.57;;
60030;SDS011;45901;47.600;9.890;2024-03-08T01:16:55;37.47;;;18.53;;
60030;SDS011;45901;47.600;9.890;2024-03-08T01:19:22;113.93;;;20.27;;
60030;SDS011;45901;47.600;9.890;2024-03-08T01:21:49;49.43;;;19.00;;
60030;SDS011;45901;47.600;9.890;2024-03-08T01:24:17;38.10;;;19.13;;
60030;SDS011;45901;47.600;9.890;2024-03-08T01:26:45;38.53;;;19.30;;
60030;SDS011;45901;47.600;9.890;2024-03-08T01:29:12;41.80;;;18.43;;
60030;SDS011;45901;47.600;9.890;2024-03-08T01:31:39;80.13;;;20.27;;
60030;SDS011;45901;47.600;9.890;2024-03-08T01:34:06;42.70;;;18.17;;
60030;SDS011;45901;47.600;9.890;2024-03-08T01:36:33;41.60;;;19.53;;
60030;SDS011;45901;47.600;9.890;2024-03-08T01:39:02;37.83;;;18.13;;
60030;SDS011;45901;47.600;9.890;2024-03-08T01:41:34;32.57;;;17.40;;
60030;SDS011;45901;47.600;9.890;2024-03-08T01:44:01;33.87;;;18.07;;
60030;SDS011;45901;47.600;9.890;2024-03-08T01:46:28;53.00;;;18.90;;
60030;SDS011;45901;47.600;9.890;2024-03-08T01:48:56;32.63;;;18.50;;
60030;SDS011;45901;47.600;9.890;2024-03-08T01:51:23;31.37;;;17.67;;
60030;SDS011;45901;47.600;9.890;2024-03-08T01:53:50;37.30;;;18.77;;
60030;SDS011;45901;47.600;9.890;2024-03-08T01:56:17;42.37;;;18.67;;
60030;SDS011;45901;47.600;9.890;2024-03-08T01:58:46;31.43;;;18.17;;
60030;SDS011;45901;47.600;9.890;2024-03-08T02:01:13;40.43;;;18.13;;
60030;SDS011;45901;47.600;9.890;2024-03-08T02:03:41;31.73;;;16.47;;
60030;SDS011;45901;47.600;9.890;2024-03-08T02:06:09;32.47;;;17.57;;
60030;SDS011;45901;47.600;9.890;2024-03-08T02:08:39;33.13;;;17.47;;
60030;SDS011;45901;47.600;9.890;2024-03-08T02:11:09;39.33;;;18.10;;
60030;SDS011;45901;47.600;9.890;2024-03-08T02:13:36;42.73;;;16.63;;
60030;SDS011;45901;47.600;9.890;2024-03-08T02:16:05;31.00;;;16.47;;
60030;SDS011;45901;47.600;9.890;2024-03-08T02:18:33;55.97;;;17.50;;
60030;SDS011;45901;47.600;9.890;2024-03-08T02:21:02;151.17;;;19.70;;
60030;SDS011;45901;47.600;9.890;2024-03-08T02:23:30;162.90;;;21.50;;
60030;SDS011;45901;47.600;9.890;2024-03-08T02:25:59;34.27;;;17.73;;
60030;SDS011;45901;47.600;9.890;2024-03-08T02:28:26;39.90;;;16.90;;
60030;SDS011;45901;47.600;9.890;2024-03-08T02:34:16;30.60;;;16.10;;
60030;SDS011;45901;47.600;9.890;2024-03-08T02:36:45;29.20;;;16.07;;
60030;SDS011;45901;47.600;9.890;2024-03-08T02:39:12;31.00;;;16.83;;
60030;SDS011;45901;47.600;9.890;2024-03-08T02:41:38;62.37;;;17.80;;
60030;SDS011;45901;47.600;9.890;2024-03-08T02:44:04;32.80;;;16.50;;
60030;SDS011;45901;47.600;9.890;2024-03-08T02:46:32;29.67;;;16.00;;
60030;SDS011;45901;47.600;9.890;2024-03-08T02:49:00;30.30;;;15.90;;
60030;SDS011;45901;47.600;9.890;2024-03-08T02:51:28;29.43;;;16.23;;
60030;SDS011;45901;47.600;9.890;2024-03-08T02:53:57;28.07;;;15.00;;
60030;SDS011;45901;47.600;9.890;2024-03-08T02:56:24;36.40;;;14.47;;
60030;SDS011;45901;47.600;9.890;2024-03-08T02:58:51;33.07;;;15.20;;
60030;SDS011;45901;47.600;9.890;2024-03-08T03:01:19;33.60;;;14.17;;
60030;SDS011;45901;47.600;9.890;2024-03-08T03:03:47;28.13;;;13.60;;
60030;SDS011;45901;47.600;9.890;2024-03-08T03:06:14;28.07;;;13.73;;
60030;SDS011;45901;47.600;9.890;2024-03-08T03:08:41;22.83;;;13.40;;
60030;SDS011;45901;47.600;9.890;2024-03-08T03:11:12;24.80;;;13.83;;
60030;SDS011;45901;47.600;9.890;2024-03-08T03:13:39;25.67;;;13.67;;
60030;SDS011;45901;47.600;9.890;2024-03-08T03:16:07;27.07;;;14.77;;
60030;SDS011;45901;47.600;9.890;2024-03-08T03:18:35;25.30;;;13.27;;
60030;SDS011;45901;47.600;9.890;2024-03-08T03:21:02;24.13;;;12.93;;
60030;SDS011;45901;47.600;9.890;2024-03-08T03:23:32;23.13;;;13.07;;
60030;SDS011;45901;47.600;9.890;2024-03-08T03:26:00;27.50;;;12.73;;
60030;SDS011;45901;47.600;9.890;2024-03-08T03:28:29;139.73;;;17.53;;
60030;SDS011;45901;47.600;9.890;2024-03-08T03:30:56;173.77;;;16.67;;
60030;SDS011;45901;47.600;9.890;2024-03-08T03:33:24;72.30;;;13.83;;
60030;SDS011;45901;47.600;9.890;2024-03-08T03:35:51;70.93;;;15.13;;
60030;SDS011;45901;47.600;9.890;2024-03-08T03:38:19;25.53;;;13.83;;
60030;SDS011;45901;47.600;9.890;2024-03-08T03:40:48;102.23;;;16.77;;
60030;SDS011;45901;47.600;9.890;2024-03-08T03:43:17;167.10;;;20.00;;
60030;SDS011;45901;47.600;9.890;2024-03-08T03:45:46;216.03;;;19.83;;
60030;SDS011;45901;47.600;9.890;2024-03-08T03:48:12;42.27;;;13.03;;
60030;SDS011;45901;47.600;9.890;2024-03-08T03:50:39;191.87;;;19.53;;
60030;SDS011;45901;47.600;9.890;2024-03-08T03:53:06;31.13;;;12.43;;
60030;SDS011;45901;47.600;9.890;2024-03-08T03:55:33;455.37;;;30.60;;
60030;SDS011;45901;47.600;9.890;2024-03-08T03:58:02;42.90;;;13.47;;
60030;SDS011;45901;47.600;9.890;2024-03-08T04:00:29;65.07;;;13.33;;
60030;SDS011;45901;47.600;9.890;2024-03-08T04:02:57;24.10;;;13.17;;
60030;SDS011;45901;47.600;9.890;2024-03-08T04:05:26;23.37;;;12.93;;
60030;SDS011;45901;47.600;9.890;2024-03-08T04:07:53;36.93;;;14.23;;
60030;SDS011;45901;47.600;9.890;2024-03-08T04:10:20;31.73;;;12.33;;
60030;SDS011;45901;47.600;9.890;2024-03-08T04:12:47;141.70;;;14.97;;
60030;SDS011;45901;47.600;9.890;2024-03-08T04:15:14;306.90;;;22.10;;
60030;SDS011;45901;47.600;9.890;2024-03-08T04:17:41;36.83;;;12.53;;
60030;SDS011;45901;47.600;9.890;2024-03-08T04:20:09;45.93;;;12.77;;
60030;SDS011;45901;47.600;9.890;2024-03-08T04:22:39;153.20;;;19.20;;
60030;SDS011;45901;47.600;9.890;2024-03-08T04:25:07;425.97;;;25.97;;
60030;SDS011;45901;47.600;9.890;2024-03-08T04:27:35;68.03;;;14.00;;
60030;SDS011;45901;47.600;9.890;2024-03-08T04:30:02;378.07;;;24.80;;
60030;SDS011;45901;47.600;9.890;2024-03-08T04:32:32;442.40;;;26.47;;
60030;SDS011;45901;47.600;9.890;2024-03-08T04:34:59;58.67;;;14.17;;
60030;SDS011;45901;47.600;9.890;2024-03-08T04:37:30;93.57;;;14.93;;
60030;SDS011;45901;47.600;9.890;2024-03-08T04:39:57;156.83;;;15.93;;
60030;SDS011;45901;47.600;9.890;2024-03-08T04:42:25;57.10;;;12.17;;
60030;SDS011;45901;47.600;9.890;2024-03-08T04:44:53;260.33;;;18.87;;
60030;SDS011;45901;47.600;9.890;2024-03-08T04:47:20;38.80;;;13.27;;
60030;SDS011;45901;47.600;9.890;2024-03-08T04:49:47;22.10;;;11.40;;
60030;SDS011;45901;47.600;9.890;2024-03-08T04:52:15;111.17;;;16.27;;
60030;SDS011;45901;47.600;9.890;2024-03-08T04:54:44;301.10;;;19.60;;
60030;SDS011;45901;47.600;9.890;2024-03-08T04:57:11;115.17;;;13.70;;
60030;SDS011;45901;47.600;9.890;2024-03-08T04:59:38;112.40;;;13.30;;
60030;SDS011;45901;47.600;9.890;2024-03-08T05:02:05;277.70;;;20.63;;
60030;SDS011;45901;47.600;9.890;2024-03-08T05:04:32;287.13;;;19.37;;
60030;SDS011;45901;47.600;9.890;2024-03-08T05:06:59;86.40;;;14.03;;
60030;SDS011;45901;47.600;9.890;2024-03-08T05:09:26;476.07;;;25.17;;
60030;SDS011;45901;47.600;9.890;2024-03-08T05:11:58;285.20;;;20.70;;
60030;SDS011;45901;47.600;9.890;2024-03-08T05:14:25;258.67;;;18.07;;
60030;SDS011;45901;47.600;9.890;2024-03-08T05:16:52;153.73;;;15.53;;
60030;SDS011;45901;47.600;9.890;2024-03-08T05:19:19;207.73;;;14.63;;
60030;SDS011;45901;47.600;9.890;2024-03-08T05:21:47;157.13;;;14.97;;
60030;SDS011;45901;47.600;9.890;2024-03-08T05:24:15;107.03;;;13.20;;
60030;SDS011;45901;47.600;9.890;2024-03-08T05:26:43;167.77;;;14.67;;
60030;SDS011;45901;47.600;9.890;2024-03-08T05:29:12;229.60;;;19.50;;
60030;SDS011;45901;47.600;9.890;2024-03-08T05:31:43;199.20;;;14.97;;
60030;SDS011;45901;47.600;9.890;2024-03-08T05:34:14;154.97;;;14.03;;
60030;SDS011;45901;47.600;9.890;2024-03-08T05:36:41;259.27;;;15.17;;
60030;SDS011;45901;47.600;9.890;2024-03-08T05:39:09;23.93;;;11.37;;
60030;SDS011;45901;47.600;9.890;2024-03-08T05:41:37;34.73;;;11.07;;
60030;SDS011;45901;47.600;9.890;2024-03-08T05:44:04;129.93;;;15.80;;
60030;SDS011;45901;47.600;9.890;2024-03-08T05:46:32;70.50;;;10.77;;
60030;SDS011;45901;47.600;9.890;2024-03-08T05:48:59;32.47;;;10.13;;
60030;SDS011;45901;47.600;9.890;2024-03-08T05:51:30;39.93;;;10.70;;
60030;SDS011;45901;47.600;9.890;2024-03-08T05:53:59;237.23;;;14.03;;
60030;SDS011;45901;47.600;9.890;2024-03-08T05:56:27;65.90;;;12.00;;
60030;SDS011;45901;47.600;9.890;2024-03-08T05:58:55;116.27;;;12.33;;
60030;SDS011;45901;47.600;9.890;2024-03-08T06:01:23;31.27;;;10.87;;
60030;SDS011;45901;47.600;9.890;2024-03-08T06:03:51;121.77;;;14.30;;
60030;SDS011;45901;47.600;9.890;2024-03-08T06:06:20;47.47;;;11.10;;
60030;SDS011;45901;47.600;9.890;2024-03-08T06:08:48;106.23;;;13.47;;
60030;SDS011;45901;47.600;9.890;2024-03-08T06:11:15;191.30;;;16.23;;
60030;SDS011;45901;47.600;9.890;2024-03-08T06:13:43;60.47;;;11.57;;
60030;SDS011;45901;47.600;9.890;2024-03-08T06:16:10;67.80;;;10.43;;
60030;SDS011;45901;47.600;9.890;2024-03-08T06:18:38;276.27;;;18.27;;
60030;SDS011;45901;47.600;9.890;2024-03-08T06:21:07;359.27;;;21.60;;
60030;SDS011;45901;47.600;9.890;2024-03-08T06:23:36;112.53;;;9.93;;
60030;SDS011;45901;47.600;9.890;2024-03-08T06:26:04;186.67;;;10.70;;
60030;SDS011;45901;47.600;9.890;2024-03-08T06:28:31;77.40;;;9.30;;
60030;SDS011;45901;47.600;9.890;2024-03-08T06:30:59;105.87;;;10.87;;
60030;SDS011;45901;47.600;9.890;2024-03-08T06:33:27;42.60;;;8.00;;
60030;SDS011;45901;47.600;9.890;2024-03-08T06:35:54;205.70;;;18.00;;
60030;SDS011;45901;47.600;9.890;2024-03-08T06:38:24;124.80;;;9.87;;
60030;SDS011;45901;47.600;9.890;2024-03-08T06:40:51;40.73;;;7.67;;
60030;SDS011;45901;47.600;9.890;2024-03-08T06:43:19;142.47;;;11.97;;
60030;SDS011;45901;47.600;9.890;2024-03-08T06:45:46;101.67;;;10.77;;
60030;SDS011;45901;47.600;9.890;2024-03-08T06:48:14;65.53;;;8.70;;
60030;SDS011;45901;47.600;9.890;2024-03-08T06:50:42;97.30;;;9.00;;
60030;SDS011;45901;47.600;9.890;2024-03-08T06:53:10;51.20;;;8.40;;
60030;SDS011;45901;47.600;9.890;2024-03-08T06:55:38;18.97;;;7.40;;
60030;SDS011;45901;47.600;9.890;2024-03-08T06:58:05;345.50;;;16.40;;
60030;SDS011;45901;47.600;9.890;2024-03-08T07:00:32;36.40;;;6.70;;
60030;SDS011;45901;47.600;9.890;2024-03-08T07:03:00;238.33;;;13.63;;
60030;SDS011;45901;47.600;9.890;2024-03-08T07:05:28;250.33;;;15.30;;
60030;SDS011;45901;47.600;9.890;2024-03-08T07:07:55;86.90;;;7.83;;
60030;SDS011;45901;47.600;9.890;2024-03-08T07:10:22;62.80;;;7.60;;
60030;SDS011;45901;47.600;9.890;2024-03-08T07:12:51;139.03;;;10.07;;
60030;SDS011;45901;47.600;9.890;2024-03-08T07:15:19;169.00;;;12.23;;
60030;SDS011;45901;47.600;9.890;2024-03-08T07:17:46;36.33;;;6.80;;
60030;SDS011;45901;47.600;9.890;2024-03-08T07:20:14;52.60;;;6.90;;
60030;SDS011;45901;47.600;9.890;2024-03-08T07:22:44;11.30;;;5.93;;
60030;SDS011;45901;47.600;9.890;2024-03-08T07:25:12;74.47;;;8.23;;
60030;SDS011;45901;47.600;9.890;2024-03-08T07:27:49;92.17;;;8.53;;
60030;SDS011;45901;47.600;9.890;2024-03-08T07:30:19;161.93;;;9.90;;
60030;SDS011;45901;47.600;9.890;2024-03-08T07:33:13;25.97;;;7.87;;
60030;SDS011;45901;47.600;9.890;2024-03-08T07:35:40;29.13;;;7.93;;
60030;SDS011;45901;47.600;9.890;2024-03-08T07:38:09;104.10;;;9.53;;
60030;SDS011;45901;47.600;9.890;2024-03-08T07:40:37;84.93;;;8.33;;
60030;SDS011;45901;47.600;9.890;2024-03-08T07:43:07;23.30;;;6.87;;
60030;SDS011;45901;47.600;9.890;2024-03-08T07:45:34;82.60;;;8.53;;
60030;SDS011;45901;47.600;9.890;2024-03-08T07:48:01;34.23;;;6.33;;
60030;SDS011;45901;47.600;9.890;2024-03-08T07:50:28;12.03;;;5.40;;
60030;SDS011;45901;47.600;9.890;2024-03-08T07:52:58;15.80;;;5.87;;
60030;SDS011;45901;47.600;9.890;2024-03-08T07:55:24;35.67;;;5.50;;
60030;SDS011;45901;47.600;9.890;2024-03-08T07:57:51;17.13;;;5.20;;
60030;SDS011;45901;47.600;9.890;2024-03-08T08:00:20;9.73;;;5.33;;
60030;SDS011;45901;47.600;9.890;2024-03-08T08:02:47;10.60;;;5.70;;
60030;SDS011;45901;47.600;9.890;2024-03-08T08:05:14;11.83;;;5.37;;
60030;SDS011;45901;47.600;9.890;2024-03-08T08:07:44;9.40;;;4.87;;
60030;SDS011;45901;47.600;9.890;2024-03-08T08:10:11;16.10;;;5.57;;
60030;SDS011;45901;47.600;9.890;2024-03-08T08:12:43;9.07;;;5.43;;
60030;SDS011;45901;47.600;9.890;2024-03-08T08:15:11;16.30;;;5.47;;
60030;SDS011;45901;47.600;9.890;2024-03-08T08:17:41;10.27;;;6.00;;
60030;SDS011;45901;47.600;9.890;2024-03-08T08:20:09;11.83;;;5.23;;
60030;SDS011;45901;47.600;9.890;2024-03-08T08:22:37;9.63;;;4.83;;
60030;SDS011;45901;47.600;9.890;2024-03-08T08:25:05;10.10;;;5.80;;
60030;SDS011;45901;47.600;9.890;2024-03-08T08:27:33;12.27;;;6.10;;
60030;SDS011;45901;47.600;9.890;2024-03-08T08:30:01;9.13;;;6.17;;
60030;SDS011;45901;47.600;9.890;2024-03-08T08:32:33;9.93;;;5.97;;
60030;SDS011;45901;47.600;9.890;2024-03-08T08:35:02;10.17;;;6.23;;
60030;SDS011;45901;47.600;9.890;2024-03-08T08:37:30;10.93;;;6.67;;
60030;SDS011;45901;47.600;9.890;2024-03-08T08:39:58;12.13;;;6.70;;
60030;SDS011;45901;47.600;9.890;2024-03-08T08:42:30;10.87;;;6.10;;
60030;SDS011;45901;47.600;9.890;2024-03-08T08:44:57;11.20;;;6.83;;
60030;SDS011;45901;47.600;9.890;2024-03-08T08:47:24;9.47;;;6.00;;
60030;SDS011;45901;47.600;9.890;2024-03-08T08:49:51;11.30;;;7.00;;
60030;SDS011;45901;47.600;9.890;2024-03-08T08:52:20;9.87;;;6.00;;
60030;SDS011;45901;47.600;9.890;2024-03-08T08:54:48;9.77;;;6.20;;
60030;SDS011;45901;47.600;9.890;2024-03-08T08:57:16;10.27;;;6.60;;
60030;SDS011;45901;47.600;9.890;2024-03-08T08:59:43;11.40;;;6.83;;
60030;SDS011;45901;47.600;9.890;2024-03-08T09:02:10;11.63;;;7.27;;
60030;SDS011;45901;47.600;9.890;2024-03-08T09:04:37;12.13;;;7.33;;
60030;SDS011;45901;47.600;9.890;2024-03-08T09:07:04;10.90;;;6.70;;
60030;SDS011;45901;47.600;9.890;2024-03-08T09:09:33;14.90;;;7.20;;
60030;SDS011;45901;47.600;9.890;2024-03-08T09:12:01;9.57;;;6.37;;
60030;SDS011;45901;47.600;9.890;2024-03-08T09:14:28;11.47;;;6.87;;
60030;SDS011;45901;47.600;9.890;2024-03-08T09:16:55;11.80;;;6.67;;
60030;SDS011;45901;47.600;9.890;2024-03-08T09:19:22;10.27;;;7.20;;
60030;SDS011;45901;47.600;9.890;2024-03-08T09:21:51;11.00;;;5.90;;
60030;SDS011;45901;47.600;9.890;2024-03-08T09:24:17;7.77;;;5.20;;
60030;SDS011;45901;47.600;9.890;2024-03-08T09:26:46;9.13;;;5.83;;
60030;SDS011;45901;47.600;9.890;2024-03-08T09:29:13;9.40;;;6.17;;
60030;SDS011;45901;47.600;9.890;2024-03-08T09:31:40;8.27;;;5.80;;
60030;SDS011;45901;47.600;9.890;2024-03-08T09:34:07;8.80;;;5.43;;
60030;SDS011;45901;47.600;9.890;2024-03-08T09:36:34;9.50;;;6.00;;
60030;SDS011;45901;47.600;9.890;2024-03-08T09:39:02;10.10;;;5.93;;
60030;SDS011;45901;47.600;9.890;2024-03-08T09:41:32;8.10;;;5.43;;
60030;SDS011;45901;47.600;9.890;2024-03-08T09:44:00;8.17;;;5.43;;
60030;SDS011;45901;47.600;9.890;2024-03-08T09:46:29;9.17;;;5.63;;
60030;SDS011;45901;47.600;9.890;2024-03-08T09:48:56;8.97;;;5.00;;
60030;SDS011;45901;47.600;9.890;2024-03-08T09:51:25;9.30;;;4.97;;
60030;SDS011;45901;47.600;9.890;2024-03-08T09:53:55;6.37;;;4.87;;
60030;SDS011;45901;47.600;9.890;2024-03-08T09:56:24;7.77;;;4.87;;
60030;SDS011;45901;47.600;9.890;2024-03-08T09:58:52;8.30;;;4.50;;
60030;SDS011;45901;47.600;9.890;2024-03-08T10:01:46;9.13;;;5.10;;
60030;SDS011;45901;47.600;9.890;2024-03-08T10:04:13;9.43;;;5.13;;
60030;SDS011;45901;47.600;9.890;2024-03-08T10:06:41;7.40;;;4.90;;
60030;SDS011;45901;47.600;9.890;2024-03-08T10:09:08;7.80;;;4.87;;
60030;SDS011;45901;47.600;9.890;2024-03-08T10:11:36;7.20;;;4.87;;
60030;SDS011;45901;47.600;9.890;2024-03-08T10:14:04;8.90;;;4.80;;
60030;SDS011;45901;47.600;9.890;2024-03-08T10:16:31;8.87;;;4.20;;
60030;SDS011;45901;47.600;9.890;2024-03-08T10:19:01;6.40;;;4.33;;
60030;SDS011;45901;47.600;9.890;2024-03-08T10:21:28;6.23;;;4.30;;
60030;SDS011;45901;47.600;9.890;2024-03-08T10:23:55;7.63;;;4.50;;
60030;SDS011;45901;47.600;9.890;2024-03-08T10:26:23;6.90;;;4.20;;
60030;SDS011;45901;47.600;9.890;2024-03-08T10:28:51;7.57;;;4.93;;
60030;SDS011;45901;47.600;9.890;2024-03-08T10:31:18;6.93;;;4.67;;
60030;SDS011;45901;47.600;9.890;2024-03-08T10:33:46;7.07;;;4.90;;
60030;SDS011;45901;47.600;9.890;2024-03-08T10:36:15;5.40;;;4.20;;
60030;SDS011;45901;47.600;9.890;2024-03-08T10:38:44;7.00;;;4.23;;
60030;SDS011;45901;47.600;9.890;2024-03-08T10:41:15;10.53;;;4.73;;
60030;SDS011;45901;47.600;9.890;2024-03-08T10:43:47;7.90;;;4.53;;
60030;SDS011;45901;47.600;9.890;2024-03-08T10:46:35;7.80;;;4.00;;
60030;SDS011;45901;47.600;9.890;2024-03-08T10:49:23;6.77;;;4.73;;
60030;SDS011;45901;47.600;9.890;2024-03-08T10:51:59;7.63;;;4.23;;
60030;SDS011;45901;47.600;9.890;2024-03-08T10:54:30;8.40;;;4.37;;
60030;SDS011;45901;47.600;9.890;2024-03-08T10:56:59;6.47;;;4.13;;
60030;SDS011;45901;47.600;9.890;2024-03-08T10:59:33;5.90;;;4.10;;
60030;SDS011;45901;47.600;9.890;2024-03-08T11:02:01;6.83;;;4.37;;
60030;SDS011;45901;47.600;9.890;2024-03-08T11:04:30;6.77;;;3.30;;
60030;SDS011;45901;47.600;9.890;2024-03-08T11:07:01;6.17;;;3.60;;
60030;SDS011;45901;47.600;9.890;2024-03-08T11:09:31;8.03;;;3.53;;
60030;SDS011;45901;47.600;9.890;2024-03-08T11:12:22;5.90;;;3.47;;
60030;SDS011;45901;47.600;9.890;2024-03-08T11:14:54;5.60;;;3.17;;
60030;SDS011;45901;47.600;9.890;2024-03-08T11:17:26;4.10;;;2.50;;
60030;SDS011;45901;47.600;9.890;2024-03-08T11:20:11;5.47;;;2.70;;
60030;SDS011;45901;47.600;9.890;2024-03-08T11:22:47;5.40;;;3.37;;
60030;SDS011;45901;47.600;9.890;2024-03-08T11:33:50;3.90;;;3.10;;
60030;SDS011;45901;47.600;9.890;2024-03-08T11:36:20;8.93;;;3.90;;
60030;SDS011;45901;47.600;9.890;2024-03-08T11:38:49;6.27;;;3.40;;
60030;SDS011;45901;47.600;9.890;2024-03-08T11:41:18;6.07;;;4.00;;
60030;SDS011;45901;47.600;9.890;2024-03-08T11:43:46;6.33;;;4.10;;
60030;SDS011;45901;47.600;9.890;2024-03-08T11:46:14;7.07;;;4.73;;
60030;SDS011;45901;47.600;9.890;2024-03-08T11:48:44;7.80;;;4.60;;
60030;SDS011;45901;47.600;9.890;2024-03-08T11:51:14;8.00;;;4.77;;
60030;SDS011;45901;47.600;9.890;2024-03-08T11:53:43;9.27;;;5.60;;
60030;SDS011;45901;47.600;9.890;2024-03-08T11:56:12;7.63;;;4.60;;
60030;SDS011;45901;47.600;9.890;2024-03-08T11:58:40;6.70;;;4.50;;
60030;SDS011;45901;47.600;9.890;2024-03-08T12:01:08;5.93;;;4.33;;
60030;SDS011;45901;47.600;9.890;2024-03-08T12:03:37;7.13;;;4.13;;
60030;SDS011;45901;47.600;9.890;2024-03-08T12:06:04;7.47;;;4.67;;
60030;SDS011;45901;47.600;9.890;2024-03-08T12:08:34;7.20;;;4.60;;
60030;SDS011;45901;47.600;9.890;2024-03-08T12:11:03;9.47;;;4.60;;
60030;SDS011;45901;47.600;9.890;2024-03-08T12:13:32;6.63;;;4.37;;
60030;SDS011;45901;47.600;9.890;2024-03-08T12:16:00;8.10;;;4.20;;
60030;SDS011;45901;47.600;9.890;2024-03-08T12:18:32;6.80;;;4.73;;
60030;SDS011;45901;47.600;9.890;2024-03-08T12:21:06;7.67;;;4.77;;
60030;SDS011;45901;47.600;9.890;2024-03-08T12:23:34;9.83;;;4.67;;
60030;SDS011;45901;47.600;9.890;2024-03-08T12:26:11;7.13;;;5.07;;
60030;SDS011;45901;47.600;9.890;2024-03-08T12:28:42;7.47;;;4.90;;
60030;SDS011;45901;47.600;9.890;2024-03-08T12:31:11;7.07;;;4.80;;
60030;SDS011;45901;47.600;9.890;2024-03-08T12:33:46;6.37;;;5.10;;
60030;SDS011;45901;47.600;9.890;2024-03-08T12:36:15;8.97;;;5.17;;
60030;SDS011;45901;47.600;9.890;2024-03-08T12:38:45;7.70;;;5.33;;
60030;SDS011;45901;47.600;9.890;2024-03-08T12:41:13;8.90;;;5.67;;
60030;SDS011;45901;47.600;9.890;2024-03-08T12:43:41;6.87;;;5.10;;
60030;SDS011;45901;47.600;9.890;2024-03-08T12:46:13;8.93;;;5.30;;
60030;SDS011;45901;47.600;9.890;2024-03-08T12:48:40;9.43;;;5.13;;
60030;SDS011;45901;47.600;9.890;2024-03-08T12:51:15;8.40;;;5.43;;
60030;SDS011;45901;47.600;9.890;2024-03-08T12:53:43;8.13;;;5.90;;
60030;SDS011;45901;47.600;9.890;2024-03-08T12:56:10;7.27;;;5.60;;
60030;SDS011;45901;47.600;9.890;2024-03-08T12:58:37;7.90;;;5.87;;
60030;SDS011;45901;47.600;9.890;2024-03-08T13:01:07;8.90;;;5.73;;
60030;SDS011;45901;47.600;9.890;2024-03-08T13:03:34;10.00;;;6.03;;
60030;SDS011;45901;47.600;9.890;2024-03-08T13:06:02;8.97;;;5.87;;
60030;SDS011;45901;47.600;9.890;2024-03-08T13:08:32;7.03;;;4.97;;
60030;SDS011;45901;47.600;9.890;2024-03-08T13:11:01;7.13;;;5.10;;
60030;SDS011;45901;47.600;9.890;2024-03-08T13:13:28;10.93;;;5.43;;
60030;SDS011;45901;47.600;9.890;2024-03-08T13:15:55;11.00;;;5.50;;
60030;SDS011;45901;47.600;9.890;2024-03-08T13:18:26;7.20;;;5.43;;
60030;SDS011;45901;47.600;9.890;2024-03-08T13:20:54;8.47;;;5.57;;
60030;SDS011;45901;47.600;9.890;2024-03-08T13:25:58;9.03;;;5.97;;
60030;SDS011;45901;47.600;9.890;2024-03-08T13:28:25;11.50;;;6.47;;
60030;SDS011;45901;47.600;9.890;2024-03-08T13:30:56;8.73;;;6.27;;
60030;SDS011;45901;47.600;9.890;2024-03-08T13:33:25;9.03;;;6.40;;
60030;SDS011;45901;47.600;9.890;2024-03-08T13:35:53;9.77;;;7.00;;
60030;SDS011;45901;47.600;9.890;2024-03-08T13:38:20;9.00;;;6.20;;
60030;SDS011;45901;47.600;9.890;2024-03-08T13:40:48;7.50;;;5.57;;
60030;SDS011;45901;47.600;9.890;2024-03-08T13:43:16;11.77;;;6.10;;
60030;SDS011;45901;47.600;9.890;2024-03-08T13:45:44;8.03;;;5.30;;
60030;SDS011;45901;47.600;9.890;2024-03-08T13:48:13;8.30;;;6.23;;
60030;SDS011;45901;47.600;9.890;2024-03-08T13:50:42;13.17;;;6.50;;
60030;SDS011;45901;47.600;9.890;2024-03-08T13:53:10;14.67;;;6.73;;
60030;SDS011;45901;47.600;9.890;2024-03-08T13:55:37;10.73;;;7.47;;
60030;SDS011;45901;47.600;9.890;2024-03-08T13:58:06;10.10;;;6.50;;
60030;SDS011;45901;47.600;9.890;2024-03-08T14:00:34;12.50;;;7.93;;
60030;SDS011;45901;47.600;9.890;2024-03-08T14:03:02;11.97;;;7.23;;
60030;SDS011;45901;47.600;9.890;2024-03-08T14:05:30;12.57;;;8.10;;
60030;SDS011;45901;47.600;9.890;2024-03-08T14:08:01;11.87;;;8.43;;
60030;SDS011;45901;47.600;9.890;2024-03-08T14:10:30;11.07;;;8.17;;
60030;SDS011;45901;47.600;9.890;2024-03-08T14:12:57;10.10;;;7.97;;
60030;SDS011;45901;47.600;9.890;2024-03-08T14:15:25;10.90;;;8.23;;
60030;SDS011;45901;47.600;9.890;2024-03-08T14:17:52;11.30;;;8.53;;
60030;SDS011;45901;47.600;9.890;2024-03-08T14:20:20;9.57;;;7.00;;
60030;SDS011;45901;47.600;9.890;2024-03-08T14:22:50;16.83;;;8.47;;
60030;SDS011;45901;47.600;9.890;2024-03-08T14:25:19;11.90;;;8.17;;
60030;SDS011;45901;47.600;9.890;2024-03-08T14:27:49;9.87;;;8.00;;
60030;SDS011;45901;47.600;9.890;2024-03-08T14:30:18;11.10;;;7.70;;
60030;SDS011;45901;47.600;9.890;2024-03-08T14:32:59;10.60;;;8.10;;
60030;SDS011;45901;47.600;9.890;2024-03-08T14:35:27;14.90;;;8.27;;
60030;SDS011;45901;47.600;9.890;2024-03-08T14:37:55;11.80;;;7.90;;
60030;SDS011;45901;47.600;9.890;2024-03-08T14:40:24;13.83;;;8.40;;
60030;SDS011;45901;47.600;9.890;2024-03-08T14:42:52;12.30;;;9.07;;
60030;SDS011;45901;47.600;9.890;2024-03-08T14:45:20;14.17;;;9.17;;
60030;SDS011;45901;47.600;9.890;2024-03-08T14:47:49;11.70;;;8.70;;
60030;SDS011;45901;47.600;9.890;2024-03-08T14:50:16;13.53;;;9.40;;
60030;SDS011;45901;47.600;9.890;2024-03-08T14:52:44;11.93;;;8.70;;